Time;durP1;ratioP1;P1;durP2;ratioP2;P2;SDS_P1;SDS_P2;PMS_P1;PMS_P2;Temp;Humidity;BMP_temperature;BMP_pressure;BME280_temperature;BME280_humidity;BME280_pressure;Samples;Min_cycle;Max_cycle;Signal;HPM_P1;HPM_P2
2023/03/19 00:02:20;;;;;;;8.63;5.50;;;;;;;10.01;82.61;97854.97;5074726;28;20281;-75
2023/03/19 00:04:47;;;;;;;8.40;5.90;;;;;;;9.97;82.79;97849.06;5074694;28;20243;-75
2023/03/19 00:07:15;;;;;;;9.10;6.60;;;;;;;9.96;83.09;97857.09;5074578;28;20595;-75
2023/03/19 00:09:41;;;;;;;9.10;6.30;;;;;;;9.93;83.11;97860.81;5074442;28;20207;-75
2023/03/19 00:12:09;;;;;;;9.33;6.50;;;;;;;9.94;83.41;97859.00;5074643;28;20207;-75
2023/03/19 00:14:36;;;;;;;10.33;6.47;;;;;;;9.92;83.49;97863.56;5074592;28;20269;-75
2023/03/19 00:17:04;;;;;;;11.37;6.70;;;;;;;9.94;83.61;97865.13;5074603;28;20260;-77
2023/03/19 00:19:30;;;;;;;10.00;7.00;;;;;;;9.96;83.77;97860.59;5074218;28;20204;-76
2023/03/19 00:21:57;;;;;;;9.87;6.33;;;;;;;9.96;84.04;97865.88;5074790;28;20309;-75
2023/03/19 00:24:24;;;;;;;11.07;6.83;;;;;;;9.94;84.43;97856.38;5074512;28;20618;-76
2023/03/19 00:26:51;;;;;;;13.30;6.67;;;;;;;9.95;84.49;97858.03;5074514;28;20223;-75
2023/03/19 00:29:17;;;;;;;8.73;6.67;;;;;;;9.99;84.43;97862.16;5074231;28;20213;-76
2023/03/19 00:31:44;;;;;;;8.20;6.43;;;;;;;9.97;84.54;97858.81;5074396;28;20213;-74
2023/03/19 00:34:13;;;;;;;11.37;6.83;;;;;;;9.96;84.33;97860.59;5074195;28;20238;-76
2023/03/19 00:36:39;;;;;;;8.20;6.20;;;;;;;10.02;84.14;97867.22;5074594;28;20211;-76
2023/03/19 00:39:06;;;;;;;7.90;5.97;;;;;;;9.95;84.23;97858.03;5074131;28;20221;-75
2023/03/19 00:41:32;;;;;;;6.90;5.47;;;;;;;9.87;84.58;97863.03;5074134;28;20571;-76
2023/03/19 00:43:59;;;;;;;8.80;5.13;;;;;;;9.79;85.38;97868.03;5074049;28;20232;-77
2023/03/19 00:46:26;;;;;;;7.07;5.30;;;;;;;9.74;85.60;97870.13;5073933;28;20230;-75
2023/03/19 00:48:54;;;;;;;7.03;5.43;;;;;;;9.70;86.02;97873.91;5073852;28;20241;-76
2023/03/19 00:51:23;;;;;;;7.43;5.30;;;;;;;9.69;86.29;97866.97;5073711;28;20215;-76
2023/03/19 00:53:50;;;;;;;7.93;5.87;;;;;;;9.76;85.95;97873.50;5073525;28;20228;-75
2023/03/19 00:56:18;;;;;;;9.03;6.03;;;;;;;9.73;86.16;97874.56;5074005;28;20230;-74
2023/03/19 00:58:45;;;;;;;7.90;5.37;;;;;;;9.70;86.50;97884.47;5073941;28;20206;-75
2023/03/19 01:01:14;;;;;;;6.97;5.03;;;;;;;9.73;86.38;97873.72;5073532;28;20204;-74
2023/03/19 01:03:41;;;;;;;7.13;5.43;;;;;;;9.67;86.81;97880.25;5074228;28;20262;-75
2023/03/19 01:06:07;;;;;;;6.17;5.07;;;;;;;9.61;87.94;97879.84;5074281;28;20232;-75
2023/03/19 01:08:35;;;;;;;7.67;5.23;;;;;;;9.55;88.56;97878.47;5073656;28;20298;-74
2023/03/19 01:11:07;;;;;;;6.87;5.27;;;;;;;9.52;88.75;97870.78;5073440;28;20237;-76
2023/03/19 01:13:34;;;;;;;7.60;5.53;;;;;;;9.53;88.57;97866.31;5073700;28;20231;-76
2023/03/19 01:16:00;;;;;;;7.93;5.60;;;;;;;9.57;88.28;97871.31;5073647;28;20256;-75
2023/03/19 01:18:28;;;;;;;9.70;5.77;;;;;;;9.63;87.99;97873.53;5073617;28;20583;-75
2023/03/19 01:20:55;;;;;;;8.53;6.60;;;;;;;9.72;87.88;97877.31;5073122;28;20212;-77
2023/03/19 01:23:22;;;;;;;7.97;5.87;;;;;;;9.81;87.15;97882.81;5073314;28;20734;-76
2023/03/19 01:25:50;;;;;;;7.27;5.80;;;;;;;9.82;86.69;97880.97;5073242;28;20302;-77
2023/03/19 01:28:17;;;;;;;6.60;5.40;;;;;;;9.83;86.45;97888.81;5073204;28;20219;-77
2023/03/19 01:30:43;;;;;;;9.33;6.30;;;;;;;9.89;86.23;97895.44;5073166;28;20206;-76
2023/03/19 01:33:10;;;;;;;7.47;5.67;;;;;;;9.87;85.88;97886.78;5073373;28;20214;-76
2023/03/19 01:35:38;;;;;;;10.77;6.67;;;;;;;9.87;86.30;97892.06;5073451;28;20352;-76
2023/03/19 01:38:05;;;;;;;7.90;5.87;;;;;;;9.89;87.00;97898.06;5073148;28;20246;-76
2023/03/19 01:40:32;;;;;;;7.63;5.67;;;;;;;9.95;86.82;97895.00;5072737;28;20677;-77
2023/03/19 01:43:13;;;;;;;8.73;6.17;;;;;;;9.95;87.05;97892.38;5072977;28;20211;-77
2023/03/19 01:45:42;;;;;;;7.73;6.30;;;;;;;9.91;87.80;97902.31;5073011;28;20256;-76
2023/03/19 01:48:16;;;;;;;9.47;5.83;;;;;;;9.83;88.72;97903.78;5072931;28;20227;-76
2023/03/19 01:50:45;;;;;;;8.07;6.10;;;;;;;9.78;89.23;97913.84;5072706;28;20210;-76
2023/03/19 01:53:15;;;;;;;8.17;6.33;;;;;;;9.74;90.27;97917.63;5072927;28;20361;-75
2023/03/19 01:55:42;;;;;;;7.47;6.20;;;;;;;9.70;90.56;97924.91;5073068;28;20294;-76
2023/03/19 01:58:10;;;;;;;8.87;6.20;;;;;;;9.77;92.97;97949.94;5072804;28;20203;-76
2023/03/19 02:00:38;;;;;;;9.13;5.87;;;;;;;9.81;90.38;97940.00;5071812;28;20310;-77
2023/03/19 02:03:06;;;;;;;9.17;5.70;;;;;;;9.84;88.87;97938.00;5073167;28;20562;-76
2023/03/19 02:05:34;;;;;;;7.07;5.30;;;;;;;9.86;88.39;97927.34;5072842;28;20243;-76
2023/03/19 02:08:05;;;;;;;8.43;5.97;;;;;;;9.89;88.45;97929.75;5073028;28;20232;-76
2023/03/19 02:10:32;;;;;;;7.10;4.77;;;;;;;9.92;88.52;97933.03;5072862;28;20557;-77
2023/03/19 02:12:58;;;;;;;6.10;3.93;;;;;;;9.96;85.86;97913.38;5072817;28;20203;-76
2023/03/19 02:15:27;;;;;;;6.50;4.13;;;;;;;10.05;84.87;97928.63;5072411;28;20231;-75
2023/03/19 02:17:54;;;;;;;5.60;3.90;;;;;;;10.12;84.34;97919.31;5072263;28;20206;-75
2023/03/19 02:20:26;;;;;;;6.20;3.70;;;;;;;10.15;84.42;97915.63;5071672;28;20208;-75
2023/03/19 02:23:04;;;;;;;4.03;3.20;;;;;;;10.22;82.70;97919.50;5072396;28;20207;-75
2023/03/19 02:25:38;;;;;;;4.83;3.10;;;;;;;10.31;83.05;97918.84;5071803;28;20616;-76
2023/03/19 02:28:08;;;;;;;4.27;3.03;;;;;;;10.45;84.40;97924.00;5072099;28;20351;-76
2023/03/19 02:30:35;;;;;;;4.43;2.83;;;;;;;10.51;86.28;97927.03;5071703;28;20218;-76
2023/03/19 02:33:02;;;;;;;3.10;2.60;;;;;;;10.65;90.72;97939.25;5071848;28;20266;-76
2023/03/19 02:35:32;;;;;;;3.70;2.40;;;;;;;10.69;96.52;97945.97;5071989;28;20240;-76
2023/03/19 02:37:59;;;;;;;4.30;2.50;;;;;;;10.59;100.00;97937.88;5071981;28;20588;-76
2023/03/19 02:40:29;;;;;;;3.20;2.20;;;;;;;10.48;100.00;97947.53;5071493;28;20293;-76
2023/03/19 02:42:56;;;;;;;3.67;2.77;;;;;;;10.41;100.00;97956.88;5071779;28;20206;-75
2023/03/19 02:45:28;;;;;;;3.87;2.50;;;;;;;10.32;100.00;97952.22;5071436;28;20252;-77
2023/03/19 02:47:55;;;;;;;3.40;2.67;;;;;;;10.24;100.00;97955.44;5071788;28;20234;-76
2023/03/19 02:50:21;;;;;;;5.10;2.50;;;;;;;10.21;100.00;97938.97;5071407;28;20580;-76
2023/03/19 02:52:51;;;;;;;3.23;2.10;;;;;;;10.23;100.00;97927.34;5071272;28;20211;-76
2023/03/19 02:55:18;;;;;;;2.23;1.73;;;;;;;10.21;100.00;97921.28;5071381;28;20812;-76
2023/03/19 02:57:45;;;;;;;2.90;2.10;;;;;;;10.14;100.00;97921.81;5071423;28;20253;-76
2023/03/19 03:00:12;;;;;;;3.97;2.07;;;;;;;10.12;100.00;97935.16;5071145;28;20211;-76
2023/03/19 03:02:40;;;;;;;3.07;2.00;;;;;;;10.08;100.00;97938.09;5071667;28;20310;-76
2023/03/19 03:05:08;;;;;;;5.53;2.20;;;;;;;10.02;100.00;97939.34;5071327;28;20234;-76
2023/03/19 03:07:34;;;;;;;3.17;1.97;;;;;;;9.99;100.00;97939.59;5071476;28;20698;-77
2023/03/19 03:10:01;;;;;;;2.60;2.13;;;;;;;10.00;100.00;97946.56;5071091;28;20214;-76
2023/03/19 03:12:27;;;;;;;3.50;2.07;;;;;;;9.98;100.00;97950.25;5071212;28;20219;-76
2023/03/19 03:14:54;;;;;;;2.10;1.80;;;;;;;10.00;100.00;97948.34;5071339;28;20231;-76
2023/03/19 03:17:20;;;;;;;2.90;2.30;;;;;;;10.00;100.00;97945.69;5071383;28;20207;-76
2023/03/19 03:19:48;;;;;;;3.57;2.50;;;;;;;10.01;100.00;97947.38;5071073;28;20211;-76
2023/03/19 03:22:15;;;;;;;2.60;2.40;;;;;;;10.00;100.00;97949.19;5071211;28;20211;-77
2023/03/19 03:24:41;;;;;;;4.00;2.30;;;;;;;10.01;100.00;97948.22;5070973;28;20245;-76
2023/03/19 03:27:08;;;;;;;2.90;2.23;;;;;;;10.00;100.00;97957.13;5071099;28;20326;-76
2023/03/19 03:29:35;;;;;;;3.20;2.70;;;;;;;10.08;100.00;97956.59;5071055;28;20294;-76
2023/03/19 03:32:02;;;;;;;4.07;2.70;;;;;;;9.91;100.00;97952.47;5070592;28;20207;-76
2023/03/19 03:34:28;;;;;;;3.93;2.83;;;;;;;9.77;100.00;97946.44;5071075;28;20239;-76
2023/03/19 03:36:58;;;;;;;3.50;2.60;;;;;;;9.67;100.00;97948.88;5071016;28;20218;-76
2023/03/19 03:39:25;;;;;;;3.07;2.77;;;;;;;9.61;100.00;97948.47;5070841;28;20293;-75
2023/03/19 03:41:51;;;;;;;3.37;2.70;;;;;;;9.59;100.00;97950.34;5070994;28;20590;-76
2023/03/19 03:44:18;;;;;;;3.10;2.80;;;;;;;9.55;100.00;97943.59;5070625;28;20227;-75
2023/03/19 03:46:45;;;;;;;3.30;2.60;;;;;;;9.53;100.00;97950.75;5071022;28;20594;-75
2023/03/19 03:49:12;;;;;;;3.40;3.10;;;;;;;9.57;100.00;97952.25;5070842;28;20208;-75
2023/03/19 03:51:38;;;;;;;3.93;2.80;;;;;;;9.45;100.00;97948.66;5070889;28;20221;-75
2023/03/19 03:54:06;;;;;;;3.20;2.90;;;;;;;9.38;100.00;97957.06;5070907;28;20258;-76
2023/03/19 03:56:33;;;;;;;4.83;3.90;;;;;;;9.45;100.00;97953.06;5071140;28;20569;-77
2023/03/19 03:59:00;;;;;;;4.30;3.90;;;;;;;9.40;100.00;97957.81;5071045;28;20306;-75
2023/03/19 04:01:27;;;;;;;6.50;4.37;;;;;;;9.28;100.00;97962.13;5070647;28;20212;-76
2023/03/19 04:03:54;;;;;;;6.43;4.30;;;;;;;9.23;100.00;97966.03;5070845;28;20239;-77
2023/03/19 04:06:22;;;;;;;5.40;4.50;;;;;;;9.21;100.00;97962.63;5070881;28;20204;-76
2023/03/19 04:08:49;;;;;;;6.60;4.60;;;;;;;9.21;100.00;97962.63;5070645;28;20242;-76
2023/03/19 04:11:17;;;;;;;5.30;4.80;;;;;;;9.16;100.00;97962.06;5070515;28;20254;-76
2023/03/19 04:13:44;;;;;;;5.60;5.10;;;;;;;9.15;100.00;97973.56;5070974;28;20234;-76
2023/03/19 04:16:11;;;;;;;5.60;5.00;;;;;;;9.16;100.00;97973.47;5070830;28;20203;-76
2023/03/19 04:18:38;;;;;;;6.67;5.80;;;;;;;9.22;100.00;97969.56;5070833;28;20218;-76
2023/03/19 04:21:06;;;;;;;9.83;6.37;;;;;;;9.26;100.00;97981.63;5070384;28;20207;-76
2023/03/19 04:23:33;;;;;;;6.47;5.53;;;;;;;9.31;100.00;97974.25;5070319;28;20737;-76
2023/03/19 04:26:00;;;;;;;7.10;5.30;;;;;;;9.31;100.00;97984.81;5070588;28;20218;-76
2023/03/19 04:28:28;;;;;;;6.97;5.47;;;;;;;9.28;100.00;97982.34;5070484;28;20234;-76
2023/03/19 04:30:59;;;;;;;6.80;5.83;;;;;;;9.30;100.00;97983.13;5070380;28;20204;-76
2023/03/19 04:33:26;;;;;;;12.80;6.40;;;;;;;9.30;100.00;97983.13;5070429;28;20734;-76
2023/03/19 04:35:53;;;;;;;9.00;6.57;;;;;;;9.31;100.00;97982.16;5070327;28;20272;-76
2023/03/19 04:38:19;;;;;;;7.07;6.20;;;;;;;9.33;100.00;97985.53;5070616;28;20243;-76
2023/03/19 04:40:47;;;;;;;7.60;5.97;;;;;;;9.34;100.00;97990.72;5070396;28;20627;-77
2023/03/19 04:43:14;;;;;;;7.83;5.73;;;;;;;9.34;100.00;97988.09;5070471;28;20215;-76
2023/03/19 04:45:45;;;;;;;6.63;5.83;;;;;;;9.33;100.00;97986.41;5073138;28;20211;-75
2023/03/19 04:48:11;;;;;;;8.53;5.83;;;;;;;9.32;100.00;97984.72;5074013;28;20261;-76
2023/03/19 04:50:39;;;;;;;6.10;5.50;;;;;;;9.32;100.00;97992.63;5073540;28;20311;-76
2023/03/19 04:53:06;;;;;;;6.60;5.90;;;;;;;9.31;100.00;97993.53;5074131;28;20211;-76
2023/03/19 04:55:36;;;;;;;7.17;5.40;;;;;;;9.33;100.00;97993.44;5073949;28;20326;-76
2023/03/19 04:58:03;;;;;;;7.10;5.00;;;;;;;9.32;100.00;97999.69;5073914;28;20261;-75
2023/03/19 05:00:30;;;;;;;7.83;5.57;;;;;;;9.31;100.00;98003.28;5073628;28;20241;-76
2023/03/19 05:02:58;;;;;;;7.00;5.07;;;;;;;9.34;100.00;97996.00;5073565;28;20633;-76
2023/03/19 05:05:25;;;;;;;6.10;5.50;;;;;;;9.36;100.00;98006.44;5073898;28;20575;-76
2023/03/19 05:07:51;;;;;;;8.90;5.97;;;;;;;9.39;100.00;98016.78;5073653;28;20717;-76
2023/03/19 05:10:18;;;;;;;6.67;5.50;;;;;;;9.37;100.00;98008.13;5073510;28;20208;-76
2023/03/19 05:12:44;;;;;;;6.33;5.73;;;;;;;9.38;100.00;98007.19;5073560;28;20211;-75
2023/03/19 05:15:11;;;;;;;7.33;6.27;;;;;;;9.38;100.00;98009.81;5073488;28;20249;-75
2023/03/19 05:17:38;;;;;;;9.33;6.30;;;;;;;9.35;100.00;98016.13;5073379;28;20208;-74
2023/03/19 05:20:08;;;;;;;7.03;6.33;;;;;;;9.35;100.00;98020.56;5073222;28;20208;-75
2023/03/19 05:22:34;;;;;;;7.50;5.23;;;;;;;9.32;100.00;98018.13;5073444;28;20260;-75
2023/03/19 05:25:01;;;;;;;6.80;5.50;;;;;;;9.31;100.00;98019.09;5076486;22;20240;-75
2023/03/19 05:27:27;;;;;;;5.97;5.30;;;;;;;9.28;100.00;98019.28;5053232;28;20697;-76
2023/03/19 05:29:54;;;;;;;7.10;5.63;;;;;;;9.26;100.00;98014.13;5053000;28;20219;-76
2023/03/19 05:32:21;;;;;;;7.23;5.60;;;;;;;9.19;100.00;98020.72;5053248;28;20208;-76
2023/03/19 05:34:47;;;;;;;5.30;4.73;;;;;;;9.15;100.00;98018.38;5053386;28;20238;-77
2023/03/19 05:37:15;;;;;;;6.00;5.10;;;;;;;9.09;100.00;98014.38;5053335;28;20215;-76
2023/03/19 05:39:42;;;;;;;5.60;4.97;;;;;;;9.08;100.00;98025.00;5052833;28;20208;-76
2023/03/19 05:42:09;;;;;;;5.87;5.20;;;;;;;9.08;100.00;98023.25;5053127;28;20588;-77
2023/03/19 05:44:35;;;;;;;6.93;5.20;;;;;;;9.06;100.00;98016.38;5052835;28;20608;-77
2023/03/19 05:47:02;;;;;;;5.87;5.10;;;;;;;9.05;100.00;98023.41;5052745;28;20211;-76
2023/03/19 05:49:28;;;;;;;7.43;5.30;;;;;;;9.05;100.00;98018.16;5052597;28;20231;-76
2023/03/19 05:51:55;;;;;;;6.33;5.10;;;;;;;9.05;100.00;98027.88;5052675;28;20216;-75
2023/03/19 05:54:23;;;;;;;5.73;5.07;;;;;;;9.07;100.00;98036.50;5052519;28;20639;-76
2023/03/19 05:56:50;;;;;;;5.43;4.93;;;;;;;9.08;100.00;98038.19;5052018;28;20259;-77
2023/03/19 05:59:17;;;;;;;6.10;5.00;;;;;;;9.09;100.00;98040.75;5052233;28;20208;-76
2023/03/19 06:01:43;;;;;;;6.43;5.30;;;;;;;9.11;100.00;98032.75;5052616;28;20236;-76
2023/03/19 06:04:10;;;;;;;6.80;5.87;;;;;;;9.20;100.00;98035.63;5052631;28;20764;-76
2023/03/19 06:06:36;;;;;;;6.57;5.37;;;;;;;9.20;100.00;98035.63;5053064;28;20212;-76
2023/03/19 06:09:03;;;;;;;8.23;5.73;;;;;;;9.23;100.00;98038.03;5052585;28;20370;-77
2023/03/19 06:11:31;;;;;;;6.70;5.60;;;;;;;9.27;100.00;98050.09;5052329;28;20212;-76
2023/03/19 06:13:58;;;;;;;5.83;5.20;;;;;;;9.27;100.00;98046.59;5052053;28;20228;-76
2023/03/19 06:16:24;;;;;;;7.97;5.80;;;;;;;9.29;100.00;98055.25;5052470;28;20211;-76
2023/03/19 06:18:51;;;;;;;7.10;4.90;;;;;;;9.32;100.00;98048.00;5052232;28;20282;-75
2023/03/19 06:21:17;;;;;;;5.83;5.00;;;;;;;9.33;100.00;98051.47;5052022;28;20204;-76
2023/03/19 06:23:44;;;;;;;5.80;5.30;;;;;;;9.40;100.00;98050.13;5051983;28;20227;-76
2023/03/19 06:26:10;;;;;;;6.70;4.70;;;;;;;9.45;100.00;98050.66;5052070;28;20208;-76
2023/03/19 06:28:38;;;;;;;5.53;4.93;;;;;;;9.50;100.00;98045.94;5051877;28;20238;-76
2023/03/19 06:31:05;;;;;;;5.87;5.00;;;;;;;9.51;100.00;98048.50;5051567;28;20215;-75
2023/03/19 06:33:32;;;;;;;5.10;4.60;;;;;;;9.52;100.00;98046.66;5051984;28;20698;-75
2023/03/19 06:35:59;;;;;;;4.93;4.47;;;;;;;9.57;100.00;98042.81;5051885;28;20298;-76
2023/03/19 06:38:26;;;;;;;6.40;4.63;;;;;;;9.63;100.00;98041.53;5051880;28;20740;-76
2023/03/19 06:40:52;;;;;;;7.47;4.40;;;;;;;9.72;100.00;98046.22;5051439;28;20212;-75
2023/03/19 06:43:18;;;;;;;6.10;4.60;;;;;;;9.74;100.00;98047.78;5051746;28;20238;-75
2023/03/19 06:45:46;;;;;;;5.57;4.50;;;;;;;9.84;100.00;98045.38;5051543;28;20228;-75
2023/03/19 06:48:13;;;;;;;5.07;4.53;;;;;;;9.83;100.00;98049.81;5051626;28;20272;-76
2023/03/19 06:50:40;;;;;;;5.10;4.53;;;;;;;9.86;100.00;98046.94;5051426;28;20207;-75
2023/03/19 06:53:06;;;;;;;5.57;4.60;;;;;;;9.87;100.00;98045.16;5051626;28;20208;-75
2023/03/19 06:55:33;;;;;;;5.97;4.23;;;;;;;9.94;100.00;98042.00;5051389;28;20233;-75
2023/03/19 06:57:59;;;;;;;5.00;4.50;;;;;;;9.95;100.00;98050.75;5051506;28;20207;-75
2023/03/19 07:00:26;;;;;;;5.50;4.30;;;;;;;9.98;100.00;98047.94;5051367;28;20212;-76
2023/03/19 07:02:54;;;;;;;5.67;4.47;;;;;;;10.03;100.00;98051.97;5051386;28;20204;-75
2023/03/19 07:05:21;;;;;;;6.53;4.40;;;;;;;10.10;100.00;98049.78;5051295;28;20228;-75
2023/03/19 07:07:47;;;;;;;5.23;4.10;;;;;;;10.15;100.00;98055.59;5050314;28;20231;-76
2023/03/19 07:10:14;;;;;;;4.73;4.17;;;;;;;10.22;100.00;98062.13;5050775;28;20208;-75
2023/03/19 07:12:40;;;;;;;5.57;4.80;;;;;;;10.30;100.00;98059.78;5051288;28;20215;-76
2023/03/19 07:15:08;;;;;;;6.00;4.93;;;;;;;10.34;100.00;98061.28;5050323;28;20240;-76
2023/03/19 07:17:34;;;;;;;6.77;5.30;;;;;;;10.37;100.00;98051.34;5051006;28;20212;-76
2023/03/19 07:20:02;;;;;;;6.90;5.20;;;;;;;10.41;100.00;98057.25;5050823;28;20211;-76
2023/03/19 07:22:29;;;;;;;6.13;5.27;;;;;;;10.44;100.00;98065.81;5050952;28;20214;-76
2023/03/19 07:24:55;;;;;;;6.23;4.97;;;;;;;10.49;100.00;98054.91;5051043;28;20242;-76
2023/03/19 07:27:22;;;;;;;6.03;4.90;;;;;;;10.56;100.00;98061.47;5051185;28;20208;-77
2023/03/19 07:29:48;;;;;;;6.50;5.17;;;;;;;10.62;100.00;98066.31;5050670;28;20229;-76
2023/03/19 07:32:15;;;;;;;7.63;4.33;;;;;;;10.73;100.00;98063.75;5051042;28;20212;-76
2023/03/19 07:34:41;;;;;;;4.63;4.20;;;;;;;10.75;100.00;98075.06;5051042;28;20228;-76
2023/03/19 07:37:09;;;;;;;5.27;3.90;;;;;;;10.79;100.00;98068.63;5051059;28;20216;-76
2023/03/19 07:39:36;;;;;;;4.90;4.07;;;;;;;10.84;100.00;98077.06;5051031;28;20282;-76
2023/03/19 07:42:03;;;;;;;4.53;4.10;;;;;;;10.90;100.00;98072.19;5051288;28;20204;-76
2023/03/19 07:44:29;;;;;;;6.27;3.93;;;;;;;10.95;100.00;98069.22;5051114;28;20613;-76
2023/03/19 07:46:56;;;;;;;7.07;4.40;;;;;;;11.03;100.00;98067.72;5051114;28;20219;-76
2023/03/19 07:49:23;;;;;;;5.83;4.43;;;;;;;11.12;100.00;98068.88;5050539;28;20257;-77
2023/03/19 07:51:50;;;;;;;4.80;3.97;;;;;;;11.14;100.00;98069.59;5050793;28;20258;-76
2023/03/19 07:54:17;;;;;;;6.47;4.23;;;;;;;11.11;100.00;98070.66;5050820;28;20692;-76
2023/03/19 07:56:44;;;;;;;5.60;4.37;;;;;;;11.11;100.00;98069.78;5050736;28;20709;-76
2023/03/19 07:59:11;;;;;;;6.37;4.30;;;;;;;11.16;100.00;98072.97;5050523;28;20575;-77
2023/03/19 08:01:37;;;;;;;5.67;4.27;;;;;;;11.21;100.00;98071.69;5050670;28;20208;-78
2023/03/19 08:04:04;;;;;;;4.60;4.17;;;;;;;11.31;100.00;98071.88;5050492;28;20721;-75
2023/03/19 08:06:30;;;;;;;5.60;3.93;;;;;;;11.37;100.00;98071.41;5051124;28;20679;-76
2023/03/19 08:08:57;;;;;;;4.60;3.70;;;;;;;11.44;100.00;98072.66;5050774;28;20232;-77
2023/03/19 08:11:25;;;;;;;6.37;4.50;;;;;;;11.52;100.00;98070.28;5050680;28;20216;-77
2023/03/19 08:13:51;;;;;;;4.20;3.77;;;;;;;11.63;100.00;98079.13;5050604;28;20225;-75
2023/03/19 08:16:18;;;;;;;5.40;3.83;;;;;;;11.73;100.00;98068.72;5050686;28;20211;-73
2023/03/19 08:18:44;;;;;;;5.17;4.40;;;;;;;11.79;100.00;98068.28;5051329;28;20216;-73
2023/03/19 08:21:11;;;;;;;5.23;4.33;;;;;;;11.90;100.00;98070.94;5052965;28;20212;-75
2023/03/19 08:23:37;;;;;;;4.43;4.03;;;;;;;11.94;100.00;98067.97;5053703;28;20216;-77
2023/03/19 08:26:04;;;;;;;6.57;4.13;;;;;;;11.98;100.00;98068.56;5053868;28;20218;-77
2023/03/19 08:28:32;;;;;;;5.33;3.93;;;;;;;11.99;100.00;98070.25;5052170;28;20321;-77
2023/03/19 08:30:58;;;;;;;4.97;4.00;;;;;;;12.02;100.00;98064.72;5052176;28;20220;-77
2023/03/19 08:33:25;;;;;;;4.97;4.00;;;;;;;12.07;100.00;98073.16;5054175;28;20212;-77
2023/03/19 08:35:51;;;;;;;5.37;4.17;;;;;;;12.07;100.00;98067.84;5053824;28;20263;-77
2023/03/19 08:38:18;;;;;;;5.17;4.00;;;;;;;12.11;100.00;98070.16;5052929;28;20625;-77
2023/03/19 08:40:45;;;;;;;5.67;3.73;;;;;;;12.20;100.00;98073.91;5054270;28;20727;-77
2023/03/19 08:43:11;;;;;;;4.10;3.60;;;;;;;12.15;100.00;98071.63;5053200;28;20220;-77
2023/03/19 08:45:39;;;;;;;4.80;3.73;;;;;;;12.16;100.00;98073.28;5053022;28;20237;-74
2023/03/19 08:48:06;;;;;;;6.43;4.80;;;;;;;12.20;100.00;98076.56;5054125;28;20236;-78
2023/03/19 08:50:32;;;;;;;4.43;3.37;;;;;;;12.14;98.83;98069.94;5053866;28;20213;-77
2023/03/19 08:52:59;;;;;;;6.20;3.60;;;;;;;12.14;98.31;98074.38;5054269;28;20206;-77
2023/03/19 08:55:25;;;;;;;4.00;3.47;;;;;;;12.24;98.22;98073.53;5053906;28;20737;-77
2023/03/19 08:57:52;;;;;;;4.93;3.70;;;;;;;12.19;99.23;98082.81;5053942;28;20213;-77
2023/03/19 09:00:19;;;;;;;4.47;3.60;;;;;;;12.21;100.00;98091.47;5053553;28;20300;-77
2023/03/19 09:02:47;;;;;;;4.17;3.50;;;;;;;12.31;99.88;98097.78;5054017;28;20283;-77
2023/03/19 09:05:13;;;;;;;5.37;3.40;;;;;;;12.43;99.22;98095.03;5053902;28;20230;-77
2023/03/19 09:07:40;;;;;;;4.77;3.57;;;;;;;12.66;97.67;98094.09;5053896;28;20584;-77
2023/03/19 09:10:07;;;;;;;4.20;3.63;;;;;;;12.77;94.19;98080.00;5053455;28;20231;-77
2023/03/19 09:12:34;;;;;;;4.80;3.43;;;;;;;12.83;93.73;98084.84;5053803;28;20219;-77
2023/03/19 09:15:00;;;;;;;4.07;3.27;;;;;;;12.88;94.55;98088.78;5053418;28;20596;-77
2023/03/19 09:17:27;;;;;;;3.77;3.37;;;;;;;12.99;93.79;98085.31;5053926;28;20215;-77
2023/03/19 09:19:55;;;;;;;3.50;3.20;;;;;;;13.08;92.50;98089.91;5053321;28;20692;-77
2023/03/19 09:22:21;;;;;;;4.57;3.53;;;;;;;13.26;91.76;98080.47;5053587;28;20209;-77
2023/03/19 09:24:48;;;;;;;5.60;3.57;;;;;;;13.42;90.62;98084.41;5053103;28;20236;-77
2023/03/19 09:27:14;;;;;;;3.97;3.17;;;;;;;13.61;91.19;98089.03;5053763;28;20215;-77
2023/03/19 09:29:41;;;;;;;3.30;3.00;;;;;;;13.72;89.19;98081.03;5052371;28;20234;-77
2023/03/19 09:32:07;;;;;;;4.43;3.57;;;;;;;13.90;91.17;98083.03;5053330;28;20258;-77
2023/03/19 09:34:34;;;;;;;6.17;3.93;;;;;;;13.95;89.16;98075.53;5053165;28;20240;-78
2023/03/19 09:37:02;;;;;;;4.23;3.40;;;;;;;13.99;85.96;98068.16;5053029;28;20227;-77
2023/03/19 09:39:29;;;;;;;4.43;3.30;;;;;;;13.93;85.03;98068.66;5052919;28;20678;-77
2023/03/19 09:42:05;;;;;;;3.33;2.80;;;;;;;13.94;82.93;98059.72;5053197;28;20340;-77
2023/03/19 09:44:36;;;;;;;4.60;2.87;;;;;;;13.78;82.97;98059.28;5053138;28;20254;-78
2023/03/19 09:47:18;;;;;;;4.23;3.00;;;;;;;13.81;84.17;98061.72;5050758;28;20211;-78
2023/03/19 09:49:47;;;;;;;4.90;2.83;;;;;;;13.67;84.11;98072.59;5052581;28;20225;-78
2023/03/19 09:52:28;;;;;;;4.97;3.00;;;;;;;13.52;84.72;98069.41;5052997;28;20304;-78
2023/03/19 09:54:57;;;;;;;4.00;3.07;;;;;;;13.84;86.71;98078.22;5052842;28;20231;-78
2023/03/19 09:57:23;;;;;;;6.60;3.40;;;;;;;14.03;83.50;98061.56;5052949;28;20209;-78
2023/03/19 09:59:52;;;;;;;4.23;2.80;;;;;;;14.31;84.00;98064.47;5052488;28;20207;-77
2023/03/19 10:02:37;;;;;;;4.03;3.00;;;;;;;14.48;80.32;98044.44;5052694;28;20219;-79
2023/03/19 10:05:15;;;;;;;4.33;3.10;;;;;;;14.65;80.28;98051.75;5052470;28;20235;-76
2023/03/19 10:08:03;;;;;;;3.47;2.77;;;;;;;14.83;80.94;98056.34;5052809;28;20214;-78
2023/03/19 10:10:44;;;;;;;3.00;2.70;;;;;;;14.97;77.89;98037.34;5052311;28;20231;-78
2023/03/19 10:13:26;;;;;;;2.60;2.40;;;;;;;14.97;74.84;98020.53;5052457;28;20217;-77
2023/03/19 10:15:54;;;;;;;3.67;2.27;;;;;;;14.86;71.76;98012.66;5052994;28;20318;-77
2023/03/19 10:18:26;;;;;;;3.27;2.83;;;;;;;14.94;77.59;98034.97;5052615;28;20206;-77
2023/03/19 10:20:57;;;;;;;3.27;2.43;;;;;;;15.07;75.08;98016.94;5052289;28;20214;-77
2023/03/19 10:23:39;;;;;;;4.37;2.43;;;;;;;15.25;74.19;98019.75;5052210;28;20204;-77
2023/03/19 10:26:11;;;;;;;4.37;2.60;;;;;;;15.39;72.70;98011.41;5052128;28;20219;-77
2023/03/19 10:28:41;;;;;;;3.07;2.30;;;;;;;15.49;72.22;98018.44;5052177;28;20294;-77
2023/03/19 10:31:24;;;;;;;3.80;2.53;;;;;;;15.59;73.93;98027.25;5051898;28;20214;-77
2023/03/19 10:33:56;;;;;;;2.67;2.47;;;;;;;15.73;69.69;98010.88;5052073;28;20306;-77
2023/03/19 10:36:27;;;;;;;5.67;2.50;;;;;;;15.76;67.63;97989.25;5052010;28;20218;-77
2023/03/19 10:38:55;;;;;;;4.57;2.50;;;;;;;15.82;66.63;97987.88;5052008;28;20214;-77
2023/03/19 10:41:36;;;;;;;4.53;2.40;;;;;;;15.84;69.33;97991.22;5051781;28;20237;-77
2023/03/19 10:44:09;;;;;;;4.13;2.50;;;;;;;15.86;66.39;97981.25;5051775;28;20326;-77
2023/03/19 10:46:39;;;;;;;3.23;2.30;;;;;;;15.61;64.59;97968.50;5051727;28;20211;-77
2023/03/19 10:49:11;;;;;;;3.00;2.10;;;;;;;15.50;65.25;97971.31;5051362;28;21097;-78
2023/03/19 10:51:38;;;;;;;3.33;2.40;;;;;;;15.57;65.20;97967.13;5051799;28;20215;-78
2023/03/19 10:54:19;;;;;;;2.67;2.47;;;;;;;15.65;64.65;97960.09;5051461;28;20743;-78
2023/03/19 10:56:47;;;;;;;3.50;2.43;;;;;;;15.73;66.53;97976.22;5051678;28;20226;-78
2023/03/19 10:59:22;;;;;;;2.80;2.60;;;;;;;15.94;66.21;97970.72;5050901;28;20204;-77
2023/03/19 11:01:48;;;;;;;3.07;2.13;;;;;;;15.99;68.19;97979.97;5051501;28;20222;-77
2023/03/19 11:04:19;;;;;;;2.77;2.03;;;;;;;16.01;63.36;97945.19;5051516;28;20591;-77
2023/03/19 11:06:49;;;;;;;2.63;1.97;;;;;;;15.95;62.56;97940.44;5051888;28;20200;-76
2023/03/19 11:09:26;;;;;;;3.63;1.80;;;;;;;15.98;62.54;97940.13;5051397;28;20228;-77
2023/03/19 11:11:57;;;;;;;3.10;1.87;;;;;;;16.18;59.85;97922.13;5051453;28;20609;-77
2023/03/19 11:14:31;;;;;;;1.60;1.47;;;;;;;16.16;59.42;97933.91;5051451;28;20318;-77
2023/03/19 11:17:04;;;;;;;3.27;2.10;;;;;;;16.17;60.19;97936.44;5051434;28;20678;-77
2023/03/19 11:19:33;;;;;;;2.37;1.80;;;;;;;16.25;60.52;97939.22;5051095;28;20218;-77
2023/03/19 11:22:10;;;;;;;3.37;1.50;;;;;;;16.42;57.96;97909.13;5051338;28;20208;-77
2023/03/19 11:24:40;;;;;;;2.50;1.87;;;;;;;16.47;55.18;97896.16;5069704;22;20226;-79
2023/03/19 11:27:07;;;;;;;2.67;1.80;;;;;;;16.43;53.82;97884.13;5070823;28;20211;-79
2023/03/19 11:29:37;;;;;;;3.03;1.80;;;;;;;16.41;53.30;97886.09;5070816;28;20238;-81
2023/03/19 11:32:20;;;;;;;2.00;1.70;;;;;;;16.42;53.59;97887.81;5070972;28;20642;-78
2023/03/19 11:34:53;;;;;;;2.03;1.70;;;;;;;16.33;53.72;97885.97;5070802;28;20242;-78
2023/03/19 11:37:27;;;;;;;2.33;1.70;;;;;;;16.36;53.38;97880.34;5071188;28;20214;-79